sensor_id;sensor_type;location;lat;lon;timestamp;temperature;humidity
29939;DHT22;16799;50.844;5.304;2023-06-26T00:01:57;23.10;99.90
29939;DHT22;16799;50.844;5.304;2023-06-26T00:04:23;23.20;99.90
29939;DHT22;16799;50.844;5.304;2023-06-26T00:06:49;23.10;99.90
29939;DHT22;16799;50.844;5.304;2023-06-26T00:09:14;23.10;99.90
29939;DHT22;16799;50.844;5.304;2023-06-26T00:11:40;23.10;99.90
29939;DHT22;16799;50.844;5.304;2023-06-26T00:14:06;23.10;99.90
29939;DHT22;16799;50.844;5.304;2023-06-26T00:16:32;22.90;99.90
29939;DHT22;16799;50.844;5.304;2023-06-26T00:18:57;22.90;99.90
29939;DHT22;16799;50.844;5.304;2023-06-26T00:21:24;22.90;99.90
29939;DHT22;16799;50.844;5.304;2023-06-26T00:23:51;22.90;99.90
29939;DHT22;16799;50.844;5.304;2023-06-26T00:26:16;22.90;99.90
29939;DHT22;16799;50.844;5.304;2023-06-26T00:28:42;22.80;99.90
29939;DHT22;16799;50.844;5.304;2023-06-26T00:31:08;22.80;99.90
29939;DHT22;16799;50.844;5.304;2023-06-26T00:33:33;22.70;99.90
29939;DHT22;16799;50.844;5.304;2023-06-26T00:35:59;22.70;99.90
29939;DHT22;16799;50.844;5.304;2023-06-26T00:38:25;22.70;99.90
29939;DHT22;16799;50.844;5.304;2023-06-26T00:40:50;22.60;99.90
29939;DHT22;16799;50.844;5.304;2023-06-26T00:43:16;22.50;99.90
29939;DHT22;16799;50.844;5.304;2023-06-26T00:45:42;22.50;99.90
29939;DHT22;16799;50.844;5.304;2023-06-26T00:48:09;22.50;99.90
29939;DHT22;16799;50.844;5.304;2023-06-26T00:50:35;22.50;99.90
29939;DHT22;16799;50.844;5.304;2023-06-26T00:53:01;22.50;99.90
29939;DHT22;16799;50.844;5.304;2023-06-26T00:55:27;22.60;99.90
29939;DHT22;16799;50.844;5.304;2023-06-26T00:57:54;22.60;99.90
29939;DHT22;16799;50.844;5.304;2023-06-26T01:00:20;22.60;99.90
29939;DHT22;16799;50.844;5.304;2023-06-26T01:02:46;22.50;99.90
29939;DHT22;16799;50.844;5.304;2023-06-26T01:05:13;22.40;99.90
29939;DHT22;16799;50.844;5.304;2023-06-26T01:07:49;22.30;99.90
29939;DHT22;16799;50.844;5.304;2023-06-26T01:10:15;22.30;99.90
29939;DHT22;16799;50.844;5.304;2023-06-26T01:12:41;22.20;99.90
29939;DHT22;16799;50.844;5.304;2023-06-26T01:15:07;22.10;99.90
29939;DHT22;16799;50.844;5.304;2023-06-26T01:17:34;22.00;99.90
29939;DHT22;16799;50.844;5.304;2023-06-26T01:20:02;21.90;99.90
29939;DHT22;16799;50.844;5.304;2023-06-26T01:22:42;21.90;99.90
29939;DHT22;16799;50.844;5.304;2023-06-26T01:25:35;21.80;99.90
29939;DHT22;16799;50.844;5.304;2023-06-26T01:28:05;21.80;99.90
29939;DHT22;16799;50.844;5.304;2023-06-26T01:30:32;21.70;99.90
29939;DHT22;16799;50.844;5.304;2023-06-26T01:32:59;21.70;99.90
29939;DHT22;16799;50.844;5.304;2023-06-26T01:35:26;21.70;99.90
29939;DHT22;16799;50.844;5.304;2023-06-26T01:37:52;21.70;99.90
29939;DHT22;16799;50.844;5.304;2023-06-26T01:40:18;21.70;99.90
29939;DHT22;16799;50.844;5.304;2023-06-26T01:42:44;21.60;99.90
29939;DHT22;16799;50.844;5.304;2023-06-26T01:45:24;21.60;99.90
29939;DHT22;16799;50.844;5.304;2023-06-26T01:47:52;21.60;99.90
29939;DHT22;16799;50.844;5.304;2023-06-26T01:50:28;21.50;99.90
29939;DHT22;16799;50.844;5.304;2023-06-26T01:53:02;21.40;99.90
29939;DHT22;16799;50.844;5.304;2023-06-26T01:55:47;21.30;99.90
29939;DHT22;16799;50.844;5.304;2023-06-26T01:58:14;21.30;99.90
29939;DHT22;16799;50.844;5.304;2023-06-26T02:00:42;21.30;99.90
29939;DHT22;16799;50.844;5.304;2023-06-26T02:03:09;21.30;99.90
29939;DHT22;16799;50.844;5.304;2023-06-26T02:05:34;21.20;99.90
29939;DHT22;16799;50.844;5.304;2023-06-26T02:08:00;21.20;99.90
29939;DHT22;16799;50.844;5.304;2023-06-26T02:10:29;21.10;99.90
29939;DHT22;16799;50.844;5.304;2023-06-26T02:12:55;21.10;99.90
29939;DHT22;16799;50.844;5.304;2023-06-26T02:15:21;21.00;99.90
29939;DHT22;16799;50.844;5.304;2023-06-26T02:17:47;21.00;99.90
29939;DHT22;16799;50.844;5.304;2023-06-26T02:20:14;20.90;99.90
29939;DHT22;16799;50.844;5.304;2023-06-26T02:22:41;20.80;99.90
29939;DHT22;16799;50.844;5.304;2023-06-26T02:25:06;20.70;99.90
29939;DHT22;16799;50.844;5.304;2023-06-26T02:27:32;20.70;99.90
29939;DHT22;16799;50.844;5.304;2023-06-26T02:29:58;20.60;99.90
29939;DHT22;16799;50.844;5.304;2023-06-26T02:32:23;20.50;99.90
29939;DHT22;16799;50.844;5.304;2023-06-26T02:34:49;20.40;99.90
29939;DHT22;16799;50.844;5.304;2023-06-26T02:37:17;20.30;99.90
29939;DHT22;16799;50.844;5.304;2023-06-26T02:39:43;20.30;99.90
29939;DHT22;16799;50.844;5.304;2023-06-26T02:42:08;20.30;99.90
29939;DHT22;16799;50.844;5.304;2023-06-26T02:44:34;20.20;99.90
29939;DHT22;16799;50.844;5.304;2023-06-26T02:47:00;20.30;99.90
29939;DHT22;16799;50.844;5.304;2023-06-26T02:49:25;20.30;99.90
29939;DHT22;16799;50.844;5.304;2023-06-26T02:51:51;20.20;99.90
29939;DHT22;16799;50.844;5.304;2023-06-26T02:54:16;20.30;99.90
29939;DHT22;16799;50.844;5.304;2023-06-26T02:56:42;20.30;99.90
29939;DHT22;16799;50.844;5.304;2023-06-26T02:59:08;20.40;99.90
29939;DHT22;16799;50.844;5.304;2023-06-26T03:01:33;20.60;99.90
29939;DHT22;16799;50.844;5.304;2023-06-26T03:03:59;20.60;99.90
29939;DHT22;16799;50.844;5.304;2023-06-26T03:06:26;20.60;99.90
29939;DHT22;16799;50.844;5.304;2023-06-26T03:08:53;20.40;99.90
29939;DHT22;16799;50.844;5.304;2023-06-26T03:11:19;20.30;99.90
29939;DHT22;16799;50.844;5.304;2023-06-26T03:13:45;20.20;99.90
29939;DHT22;16799;50.844;5.304;2023-06-26T03:16:11;20.00;99.90
29939;DHT22;16799;50.844;5.304;2023-06-26T03:18:37;19.90;99.90
29939;DHT22;16799;50.844;5.304;2023-06-26T03:21:02;19.80;99.90
29939;DHT22;16799;50.844;5.304;2023-06-26T03:23:28;19.80;99.90
29939;DHT22;16799;50.844;5.304;2023-06-26T03:25:54;19.70;99.90
29939;DHT22;16799;50.844;5.304;2023-06-26T03:28:19;19.60;99.90
29939;DHT22;16799;50.844;5.304;2023-06-26T03:30:45;19.50;99.90
29939;DHT22;16799;50.844;5.304;2023-06-26T03:33:11;19.40;99.90
29939;DHT22;16799;50.844;5.304;2023-06-26T03:35:37;19.40;99.90
29939;DHT22;16799;50.844;5.304;2023-06-26T03:38:04;19.30;99.90
29939;DHT22;16799;50.844;5.304;2023-06-26T03:40:30;19.30;99.90
29939;DHT22;16799;50.844;5.304;2023-06-26T03:42:56;19.20;99.90
29939;DHT22;16799;50.844;5.304;2023-06-26T03:45:22;19.20;99.90
29939;DHT22;16799;50.844;5.304;2023-06-26T03:47:47;19.10;99.90
29939;DHT22;16799;50.844;5.304;2023-06-26T03:50:17;19.10;99.90
29939;DHT22;16799;50.844;5.304;2023-06-26T03:52:43;19.10;99.90
29939;DHT22;16799;50.844;5.304;2023-06-26T03:55:09;19.00;99.90
29939;DHT22;16799;50.844;5.304;2023-06-26T03:57:34;19.00;99.90
29939;DHT22;16799;50.844;5.304;2023-06-26T04:00:00;19.00;99.90
29939;DHT22;16799;50.844;5.304;2023-06-26T04:02:26;19.00;99.90
29939;DHT22;16799;50.844;5.304;2023-06-26T04:04:52;19.10;99.90
29939;DHT22;16799;50.844;5.304;2023-06-26T04:07:18;19.10;99.90
29939;DHT22;16799;50.844;5.304;2023-06-26T04:09:44;19.00;99.90
29939;DHT22;16799;50.844;5.304;2023-06-26T04:12:10;19.00;99.90
29939;DHT22;16799;50.844;5.304;2023-06-26T04:14:36;19.00;99.90
29939;DHT22;16799;50.844;5.304;2023-06-26T04:17:01;19.00;99.90
29939;DHT22;16799;50.844;5.304;2023-06-26T04:19:31;18.90;99.90
29939;DHT22;16799;50.844;5.304;2023-06-26T04:21:57;18.80;99.90
29939;DHT22;16799;50.844;5.304;2023-06-26T04:24:23;18.80;99.90
29939;DHT22;16799;50.844;5.304;2023-06-26T04:26:49;18.80;99.90
29939;DHT22;16799;50.844;5.304;2023-06-26T04:29:14;18.80;99.90
29939;DHT22;16799;50.844;5.304;2023-06-26T04:31:40;18.90;99.90
29939;DHT22;16799;50.844;5.304;2023-06-26T04:34:06;18.90;99.90
29939;DHT22;16799;50.844;5.304;2023-06-26T04:36:31;19.00;99.90
29939;DHT22;16799;50.844;5.304;2023-06-26T04:38:59;19.00;99.90
29939;DHT22;16799;50.844;5.304;2023-06-26T04:41:25;19.00;99.90
29939;DHT22;16799;50.844;5.304;2023-06-26T04:43:50;19.10;99.90
29939;DHT22;16799;50.844;5.304;2023-06-26T04:46:16;19.20;99.90
29939;DHT22;16799;50.844;5.304;2023-06-26T04:48:42;19.20;99.90
29939;DHT22;16799;50.844;5.304;2023-06-26T04:51:11;19.20;99.90
29939;DHT22;16799;50.844;5.304;2023-06-26T04:53:37;19.20;99.90
29939;DHT22;16799;50.844;5.304;2023-06-26T04:56:03;19.10;99.90
29939;DHT22;16799;50.844;5.304;2023-06-26T04:58:28;19.00;99.90
29939;DHT22;16799;50.844;5.304;2023-06-26T05:00:54;19.00;99.90
29939;DHT22;16799;50.844;5.304;2023-06-26T05:03:21;18.90;99.90
29939;DHT22;16799;50.844;5.304;2023-06-26T05:05:47;19.00;99.90
29939;DHT22;16799;50.844;5.304;2023-06-26T05:08:31;19.00;99.90
29939;DHT22;16799;50.844;5.304;2023-06-26T05:10:57;18.90;99.90
29939;DHT22;16799;50.844;5.304;2023-06-26T05:13:24;18.90;99.90
29939;DHT22;16799;50.844;5.304;2023-06-26T05:15:51;19.00;99.90
29939;DHT22;16799;50.844;5.304;2023-06-26T05:18:17;19.00;99.90
29939;DHT22;16799;50.844;5.304;2023-06-26T05:20:43;19.10;99.90
29939;DHT22;16799;50.844;5.304;2023-06-26T05:23:11;19.10;99.90
29939;DHT22;16799;50.844;5.304;2023-06-26T05:25:37;19.30;99.90
29939;DHT22;16799;50.844;5.304;2023-06-26T05:28:03;19.30;99.90
29939;DHT22;16799;50.844;5.304;2023-06-26T05:30:34;19.30;99.90
29939;DHT22;16799;50.844;5.304;2023-06-26T05:33:01;19.30;99.90
29939;DHT22;16799;50.844;5.304;2023-06-26T05:35:30;19.40;99.90
29939;DHT22;16799;50.844;5.304;2023-06-26T05:37:57;19.30;99.90
29939;DHT22;16799;50.844;5.304;2023-06-26T05:40:24;19.30;99.90
29939;DHT22;16799;50.844;5.304;2023-06-26T05:42:50;19.30;99.90
29939;DHT22;16799;50.844;5.304;2023-06-26T05:45:16;19.30;99.90
29939;DHT22;16799;50.844;5.304;2023-06-26T05:47:42;19.30;99.90
29939;DHT22;16799;50.844;5.304;2023-06-26T05:50:08;19.40;99.90
29939;DHT22;16799;50.844;5.304;2023-06-26T05:52:35;19.40;99.90
29939;DHT22;16799;50.844;5.304;2023-06-26T05:55:01;19.50;99.90
29939;DHT22;16799;50.844;5.304;2023-06-26T05:57:29;19.40;99.90
29939;DHT22;16799;50.844;5.304;2023-06-26T05:59:55;19.30;99.90
29939;DHT22;16799;50.844;5.304;2023-06-26T06:02:21;19.40;99.90
29939;DHT22;16799;50.844;5.304;2023-06-26T06:04:46;19.60;99.90
29939;DHT22;16799;50.844;5.304;2023-06-26T06:07:12;19.50;99.90
29939;DHT22;16799;50.844;5.304;2023-06-26T06:09:38;19.50;99.90
29939;DHT22;16799;50.844;5.304;2023-06-26T06:12:07;19.60;99.90
29939;DHT22;16799;50.844;5.304;2023-06-26T06:14:36;19.60;99.90
29939;DHT22;16799;50.844;5.304;2023-06-26T06:17:01;19.50;99.90
29939;DHT22;16799;50.844;5.304;2023-06-26T06:19:27;19.60;99.90
29939;DHT22;16799;50.844;5.304;2023-06-26T06:21:53;19.70;99.90
29939;DHT22;16799;50.844;5.304;2023-06-26T06:24:19;19.70;99.90
29939;DHT22;16799;50.844;5.304;2023-06-26T06:26:45;19.90;99.90
29939;DHT22;16799;50.844;5.304;2023-06-26T06:29:10;19.70;99.90
29939;DHT22;16799;50.844;5.304;2023-06-26T06:31:36;19.70;99.90
29939;DHT22;16799;50.844;5.304;2023-06-26T06:34:02;19.80;99.90
29939;DHT22;16799;50.844;5.304;2023-06-26T06:36:28;19.90;99.90
29939;DHT22;16799;50.844;5.304;2023-06-26T06:38:53;20.00;99.90
29939;DHT22;16799;50.844;5.304;2023-06-26T06:41:20;20.00;99.90
29939;DHT22;16799;50.844;5.304;2023-06-26T06:43:46;19.80;99.90
29939;DHT22;16799;50.844;5.304;2023-06-26T06:46:11;19.70;99.90
29939;DHT22;16799;50.844;5.304;2023-06-26T06:48:37;19.80;99.90
29939;DHT22;16799;50.844;5.304;2023-06-26T06:51:03;19.90;99.90
29939;DHT22;16799;50.844;5.304;2023-06-26T06:53:29;20.00;99.90
29939;DHT22;16799;50.844;5.304;2023-06-26T06:55:54;20.20;99.90
29939;DHT22;16799;50.844;5.304;2023-06-26T06:58:20;20.10;99.90
29939;DHT22;16799;50.844;5.304;2023-06-26T07:00:46;19.90;99.90
29939;DHT22;16799;50.844;5.304;2023-06-26T07:03:12;20.00;99.90
29939;DHT22;16799;50.844;5.304;2023-06-26T07:05:37;20.10;99.90
29939;DHT22;16799;50.844;5.304;2023-06-26T07:08:03;20.10;99.90
29939;DHT22;16799;50.844;5.304;2023-06-26T07:10:29;20.30;99.90
29939;DHT22;16799;50.844;5.304;2023-06-26T07:12:55;20.30;99.90
29939;DHT22;16799;50.844;5.304;2023-06-26T07:15:21;20.40;99.90
29939;DHT22;16799;50.844;5.304;2023-06-26T07:17:46;20.50;99.90
29939;DHT22;16799;50.844;5.304;2023-06-26T07:20:12;20.60;99.90
29939;DHT22;16799;50.844;5.304;2023-06-26T07:22:41;20.80;99.90
29939;DHT22;16799;50.844;5.304;2023-06-26T07:25:08;20.80;99.90
29939;DHT22;16799;50.844;5.304;2023-06-26T07:27:37;20.80;99.90
29939;DHT22;16799;50.844;5.304;2023-06-26T07:30:03;20.70;99.90
29939;DHT22;16799;50.844;5.304;2023-06-26T07:32:29;20.50;99.90
29939;DHT22;16799;50.844;5.304;2023-06-26T07:34:55;20.60;99.90
29939;DHT22;16799;50.844;5.304;2023-06-26T07:37:20;20.90;99.90
29939;DHT22;16799;50.844;5.304;2023-06-26T07:39:46;20.80;99.90
29939;DHT22;16799;50.844;5.304;2023-06-26T07:42:12;20.70;99.90
29939;DHT22;16799;50.844;5.304;2023-06-26T07:44:38;20.80;99.90
29939;DHT22;16799;50.844;5.304;2023-06-26T07:47:04;21.00;99.90
29939;DHT22;16799;50.844;5.304;2023-06-26T07:49:29;21.10;99.90
29939;DHT22;16799;50.844;5.304;2023-06-26T07:51:55;21.10;99.90
29939;DHT22;16799;50.844;5.304;2023-06-26T07:54:21;21.20;99.90
29939;DHT22;16799;50.844;5.304;2023-06-26T07:56:58;21.10;99.90
29939;DHT22;16799;50.844;5.304;2023-06-26T07:59:25;21.30;99.90
29939;DHT22;16799;50.844;5.304;2023-06-26T08:01:52;21.40;99.90
29939;DHT22;16799;50.844;5.304;2023-06-26T08:04:24;21.40;99.90
29939;DHT22;16799;50.844;5.304;2023-06-26T08:06:53;21.50;99.90
29939;DHT22;16799;50.844;5.304;2023-06-26T08:09:20;21.50;99.90
29939;DHT22;16799;50.844;5.304;2023-06-26T08:11:46;21.70;99.90
29939;DHT22;16799;50.844;5.304;2023-06-26T08:14:12;21.80;99.90
29939;DHT22;16799;50.844;5.304;2023-06-26T08:16:39;21.80;99.90
29939;DHT22;16799;50.844;5.304;2023-06-26T08:19:05;21.70;99.90
29939;DHT22;16799;50.844;5.304;2023-06-26T08:21:30;21.60;99.90
29939;DHT22;16799;50.844;5.304;2023-06-26T08:23:56;21.90;99.90
29939;DHT22;16799;50.844;5.304;2023-06-26T08:26:22;22.20;99.90
29939;DHT22;16799;50.844;5.304;2023-06-26T08:28:47;22.00;99.90
29939;DHT22;16799;50.844;5.304;2023-06-26T08:31:13;21.70;99.90
29939;DHT22;16799;50.844;5.304;2023-06-26T08:33:39;21.60;99.90
29939;DHT22;16799;50.844;5.304;2023-06-26T08:36:05;21.50;99.90
29939;DHT22;16799;50.844;5.304;2023-06-26T08:38:30;21.60;99.90
29939;DHT22;16799;50.844;5.304;2023-06-26T08:40:56;21.70;99.90
29939;DHT22;16799;50.844;5.304;2023-06-26T08:43:22;21.50;99.90
29939;DHT22;16799;50.844;5.304;2023-06-26T08:45:48;21.60;99.90
29939;DHT22;16799;50.844;5.304;2023-06-26T08:48:17;21.60;99.90
29939;DHT22;16799;50.844;5.304;2023-06-26T08:50:44;21.80;99.90
29939;DHT22;16799;50.844;5.304;2023-06-26T08:53:14;22.00;99.90
29939;DHT22;16799;50.844;5.304;2023-06-26T08:55:43;22.20;99.90
29939;DHT22;16799;50.844;5.304;2023-06-26T08:58:10;21.90;99.90
29939;DHT22;16799;50.844;5.304;2023-06-26T09:00:37;21.90;99.90
29939;DHT22;16799;50.844;5.304;2023-06-26T09:03:03;22.10;99.90
29939;DHT22;16799;50.844;5.304;2023-06-26T09:05:29;22.20;99.90
29939;DHT22;16799;50.844;5.304;2023-06-26T09:07:57;22.00;99.90
29939;DHT22;16799;50.844;5.304;2023-06-26T09:10:24;22.20;99.90
29939;DHT22;16799;50.844;5.304;2023-06-26T09:12:50;22.70;99.90
29939;DHT22;16799;50.844;5.304;2023-06-26T09:15:16;22.70;99.90
29939;DHT22;16799;50.844;5.304;2023-06-26T09:17:44;22.70;99.90
29939;DHT22;16799;50.844;5.304;2023-06-26T09:20:10;22.60;99.90
29939;DHT22;16799;50.844;5.304;2023-06-26T09:22:37;22.60;99.90
29939;DHT22;16799;50.844;5.304;2023-06-26T09:25:05;22.60;99.90
29939;DHT22;16799;50.844;5.304;2023-06-26T09:27:31;22.20;99.90
29939;DHT22;16799;50.844;5.304;2023-06-26T09:29:57;21.70;99.90
29939;DHT22;16799;50.844;5.304;2023-06-26T09:32:27;21.90;99.90
29939;DHT22;16799;50.844;5.304;2023-06-26T09:34:55;22.50;99.90
29939;DHT22;16799;50.844;5.304;2023-06-26T09:37:26;22.60;99.90
29939;DHT22;16799;50.844;5.304;2023-06-26T09:39:52;22.70;99.90
29939;DHT22;16799;50.844;5.304;2023-06-26T09:42:19;22.60;99.90
29939;DHT22;16799;50.844;5.304;2023-06-26T09:44:48;22.80;98.60
29939;DHT22;16799;50.844;5.304;2023-06-26T09:47:19;22.80;97.10
29939;DHT22;16799;50.844;5.304;2023-06-26T09:49:45;23.00;95.20
29939;DHT22;16799;50.844;5.304;2023-06-26T09:52:17;23.10;94.40
29939;DHT22;16799;50.844;5.304;2023-06-26T09:54:45;23.20;93.90
29939;DHT22;16799;50.844;5.304;2023-06-26T09:57:12;23.00;94.80
29939;DHT22;16799;50.844;5.304;2023-06-26T09:59:39;22.80;93.40
29939;DHT22;16799;50.844;5.304;2023-06-26T10:02:05;22.50;94.00
29939;DHT22;16799;50.844;5.304;2023-06-26T10:04:32;22.30;97.10
29939;DHT22;16799;50.844;5.304;2023-06-26T10:07:00;22.60;95.70
29939;DHT22;16799;50.844;5.304;2023-06-26T10:09:27;23.00;94.40
29939;DHT22;16799;50.844;5.304;2023-06-26T10:12:06;23.30;95.90
29939;DHT22;16799;50.844;5.304;2023-06-26T10:14:35;23.50;92.60
29939;DHT22;16799;50.844;5.304;2023-06-26T10:17:04;23.70;90.50
29939;DHT22;16799;50.844;5.304;2023-06-26T10:19:33;23.70;91.00
29939;DHT22;16799;50.844;5.304;2023-06-26T10:22:00;23.50;90.30
29939;DHT22;16799;50.844;5.304;2023-06-26T10:24:29;23.70;91.80
29939;DHT22;16799;50.844;5.304;2023-06-26T10:27:04;23.20;90.70
29939;DHT22;16799;50.844;5.304;2023-06-26T10:29:32;23.20;91.10
29939;DHT22;16799;50.844;5.304;2023-06-26T10:32:00;23.60;91.00
29939;DHT22;16799;50.844;5.304;2023-06-26T10:34:27;24.00;90.10
29939;DHT22;16799;50.844;5.304;2023-06-26T10:37:03;24.00;90.10
29939;DHT22;16799;50.844;5.304;2023-06-26T10:39:49;24.00;88.10
29939;DHT22;16799;50.844;5.304;2023-06-26T10:42:15;24.20;89.40
29939;DHT22;16799;50.844;5.304;2023-06-26T10:44:43;25.00;88.30
29939;DHT22;16799;50.844;5.304;2023-06-26T10:47:10;24.70;85.70
29939;DHT22;16799;50.844;5.304;2023-06-26T10:49:37;23.80;82.30
29939;DHT22;16799;50.844;5.304;2023-06-26T10:52:05;23.30;86.60
29939;DHT22;16799;50.844;5.304;2023-06-26T10:54:32;23.60;86.50
29939;DHT22;16799;50.844;5.304;2023-06-26T10:56:58;23.30;89.00
29939;DHT22;16799;50.844;5.304;2023-06-26T10:59:25;23.10;89.10
29939;DHT22;16799;50.844;5.304;2023-06-26T11:01:56;23.40;89.00
29939;DHT22;16799;50.844;5.304;2023-06-26T11:04:45;23.90;85.20
29939;DHT22;16799;50.844;5.304;2023-06-26T11:10:07;23.80;82.50
29939;DHT22;16799;50.844;5.304;2023-06-26T11:12:37;23.40;87.40
29939;DHT22;16799;50.844;5.304;2023-06-26T11:15:15;23.50;83.90
29939;DHT22;16799;50.844;5.304;2023-06-26T11:17:42;24.20;85.80
29939;DHT22;16799;50.844;5.304;2023-06-26T11:20:14;24.70;82.70
29939;DHT22;16799;50.844;5.304;2023-06-26T11:22:41;25.30;81.60
29939;DHT22;16799;50.844;5.304;2023-06-26T11:25:09;26.10;77.00
29939;DHT22;16799;50.844;5.304;2023-06-26T11:27:42;26.30;74.50
29939;DHT22;16799;50.844;5.304;2023-06-26T11:30:10;26.00;73.10
29939;DHT22;16799;50.844;5.304;2023-06-26T11:32:39;25.70;76.20
29939;DHT22;16799;50.844;5.304;2023-06-26T11:35:05;25.80;72.50
29939;DHT22;16799;50.844;5.304;2023-06-26T11:37:32;25.40;73.10
29939;DHT22;16799;50.844;5.304;2023-06-26T11:39:57;25.80;71.10
29939;DHT22;16799;50.844;5.304;2023-06-26T11:42:23;25.70;72.00
29939;DHT22;16799;50.844;5.304;2023-06-26T11:44:51;25.30;72.60
29939;DHT22;16799;50.844;5.304;2023-06-26T11:47:18;24.40;76.80
29939;DHT22;16799;50.844;5.304;2023-06-26T11:49:45;23.60;75.90
29939;DHT22;16799;50.844;5.304;2023-06-26T11:52:12;23.40;76.20
29939;DHT22;16799;50.844;5.304;2023-06-26T11:54:38;23.70;74.70
29939;DHT22;16799;50.844;5.304;2023-06-26T11:57:04;24.10;73.50
29939;DHT22;16799;50.844;5.304;2023-06-26T11:59:40;24.70;72.40
29939;DHT22;16799;50.844;5.304;2023-06-26T12:02:10;25.30;69.90
29939;DHT22;16799;50.844;5.304;2023-06-26T12:04:38;26.20;69.10
29939;DHT22;16799;50.844;5.304;2023-06-26T12:07:06;26.60;68.50
29939;DHT22;16799;50.844;5.304;2023-06-26T12:09:33;26.50;62.70
29939;DHT22;16799;50.844;5.304;2023-06-26T12:12:00;26.50;66.50
29939;DHT22;16799;50.844;5.304;2023-06-26T12:14:26;26.80;67.60
29939;DHT22;16799;50.844;5.304;2023-06-26T12:16:55;27.00;63.30
29939;DHT22;16799;50.844;5.304;2023-06-26T12:19:27;26.80;63.90
29939;DHT22;16799;50.844;5.304;2023-06-26T12:21:53;27.50;65.60
29939;DHT22;16799;50.844;5.304;2023-06-26T12:24:22;28.00;61.40
29939;DHT22;16799;50.844;5.304;2023-06-26T12:26:55;27.30;64.20
29939;DHT22;16799;50.844;5.304;2023-06-26T12:29:32;26.40;62.60
29939;DHT22;16799;50.844;5.304;2023-06-26T12:31:58;25.20;65.80
29939;DHT22;16799;50.844;5.304;2023-06-26T12:34:27;25.00;69.30
29939;DHT22;16799;50.844;5.304;2023-06-26T12:36:53;25.10;69.30
29939;DHT22;16799;50.844;5.304;2023-06-26T12:39:20;25.80;69.40
29939;DHT22;16799;50.844;5.304;2023-06-26T12:42:08;26.20;66.90
29939;DHT22;16799;50.844;5.304;2023-06-26T12:44:32;26.20;66.60
29939;DHT22;16799;50.844;5.304;2023-06-26T12:47:00;26.00;64.70
29939;DHT22;16799;50.844;5.304;2023-06-26T12:49:49;26.50;65.00
29939;DHT22;16799;50.844;5.304;2023-06-26T12:52:15;26.90;64.20
29939;DHT22;16799;50.844;5.304;2023-06-26T12:54:42;26.80;62.80
29939;DHT22;16799;50.844;5.304;2023-06-26T12:57:09;27.00;63.00
29939;DHT22;16799;50.844;5.304;2023-06-26T12:59:38;27.20;60.40
29939;DHT22;16799;50.844;5.304;2023-06-26T13:02:04;27.30;60.50
29939;DHT22;16799;50.844;5.304;2023-06-26T13:04:30;27.20;61.50
29939;DHT22;16799;50.844;5.304;2023-06-26T13:06:56;27.70;60.30
29939;DHT22;16799;50.844;5.304;2023-06-26T13:09:23;26.80;62.70
29939;DHT22;16799;50.844;5.304;2023-06-26T13:11:51;26.80;61.90
29939;DHT22;16799;50.844;5.304;2023-06-26T13:14:16;26.70;61.80
29939;DHT22;16799;50.844;5.304;2023-06-26T13:16:42;26.80;65.70
29939;DHT22;16799;50.844;5.304;2023-06-26T13:19:08;26.00;62.10
29939;DHT22;16799;50.844;5.304;2023-06-26T13:21:34;25.20;65.50
29939;DHT22;16799;50.844;5.304;2023-06-26T13:24:00;24.80;67.30
29939;DHT22;16799;50.844;5.304;2023-06-26T13:26:26;25.60;68.50
29939;DHT22;16799;50.844;5.304;2023-06-26T13:28:54;25.70;66.10
29939;DHT22;16799;50.844;5.304;2023-06-26T13:31:20;25.70;66.30
29939;DHT22;16799;50.844;5.304;2023-06-26T13:33:46;26.50;66.40
29939;DHT22;16799;50.844;5.304;2023-06-26T13:36:15;27.00;62.20
29939;DHT22;16799;50.844;5.304;2023-06-26T13:38:40;26.60;60.40
29939;DHT22;16799;50.844;5.304;2023-06-26T13:41:06;26.10;63.30
29939;DHT22;16799;50.844;5.304;2023-06-26T13:43:31;25.30;64.50
29939;DHT22;16799;50.844;5.304;2023-06-26T13:45:57;24.70;66.20
29939;DHT22;16799;50.844;5.304;2023-06-26T13:48:23;24.20;65.30
29939;DHT22;16799;50.844;5.304;2023-06-26T13:50:52;24.00;69.50
29939;DHT22;16799;50.844;5.304;2023-06-26T13:53:18;24.60;67.30
29939;DHT22;16799;50.844;5.304;2023-06-26T13:55:43;25.30;67.80
29939;DHT22;16799;50.844;5.304;2023-06-26T13:58:09;26.60;64.80
29939;DHT22;16799;50.844;5.304;2023-06-26T14:00:36;27.60;62.90
29939;DHT22;16799;50.844;5.304;2023-06-26T14:03:04;28.50;58.50
29939;DHT22;16799;50.844;5.304;2023-06-26T14:05:30;28.80;56.30
29939;DHT22;16799;50.844;5.304;2023-06-26T14:07:56;28.60;59.20
29939;DHT22;16799;50.844;5.304;2023-06-26T14:10:22;28.70;56.40
29939;DHT22;16799;50.844;5.304;2023-06-26T14:12:48;28.60;55.20
29939;DHT22;16799;50.844;5.304;2023-06-26T14:15:14;28.40;56.20
29939;DHT22;16799;50.844;5.304;2023-06-26T14:17:40;27.80;56.20
29939;DHT22;16799;50.844;5.304;2023-06-26T14:20:07;26.80;56.90
29939;DHT22;16799;50.844;5.304;2023-06-26T14:22:39;26.30;57.90
29939;DHT22;16799;50.844;5.304;2023-06-26T14:25:06;26.20;57.10
29939;DHT22;16799;50.844;5.304;2023-06-26T14:27:31;26.70;55.80
29939;DHT22;16799;50.844;5.304;2023-06-26T14:29:57;27.00;54.40
29939;DHT22;16799;50.844;5.304;2023-06-26T14:32:22;27.00;56.80
29939;DHT22;16799;50.844;5.304;2023-06-26T14:34:48;27.40;55.70
29939;DHT22;16799;50.844;5.304;2023-06-26T14:37:14;27.70;55.00
29939;DHT22;16799;50.844;5.304;2023-06-26T14:39:39;28.00;56.30
29939;DHT22;16799;50.844;5.304;2023-06-26T14:42:05;27.60;54.10
29939;DHT22;16799;50.844;5.304;2023-06-26T14:44:31;26.70;55.90
29939;DHT22;16799;50.844;5.304;2023-06-26T14:46:57;26.70;56.50
29939;DHT22;16799;50.844;5.304;2023-06-26T14:49:22;26.40;56.30
29939;DHT22;16799;50.844;5.304;2023-06-26T14:51:48;26.20;57.20
29939;DHT22;16799;50.844;5.304;2023-06-26T14:54:14;26.10;57.60
29939;DHT22;16799;50.844;5.304;2023-06-26T14:56:39;26.10;56.80
29939;DHT22;16799;50.844;5.304;2023-06-26T14:59:05;25.70;57.80
29939;DHT22;16799;50.844;5.304;2023-06-26T15:01:33;25.40;59.00
29939;DHT22;16799;50.844;5.304;2023-06-26T15:03:59;25.30;59.60
29939;DHT22;16799;50.844;5.304;2023-06-26T15:06:24;25.50;58.30
29939;DHT22;16799;50.844;5.304;2023-06-26T15:08:50;25.30;59.10
29939;DHT22;16799;50.844;5.304;2023-06-26T15:11:17;25.60;58.90
29939;DHT22;16799;50.844;5.304;2023-06-26T15:13:43;25.50;59.10
29939;DHT22;16799;50.844;5.304;2023-06-26T15:16:09;25.30;59.40
29939;DHT22;16799;50.844;5.304;2023-06-26T15:18:35;25.60;58.10
29939;DHT22;16799;50.844;5.304;2023-06-26T15:21:01;26.00;58.10
29939;DHT22;16799;50.844;5.304;2023-06-26T15:23:28;26.30;56.90
29939;DHT22;16799;50.844;5.304;2023-06-26T15:25:54;26.70;57.30
29939;DHT22;16799;50.844;5.304;2023-06-26T15:28:20;26.40;57.70
29939;DHT22;16799;50.844;5.304;2023-06-26T15:30:46;26.10;58.20
29939;DHT22;16799;50.844;5.304;2023-06-26T15:33:13;25.90;60.50